Time;durP1;ratioP1;P1;durP2;ratioP2;P2;SDS_P1;SDS_P2;PMS_P1;PMS_P2;Temp;Humidity;BMP_temperature;BMP_pressure;BME280_temperature;BME280_humidity;BME280_pressure;Samples;Min_cycle;Max_cycle;Signal;HPM_P1;HPM_P2
2021/06/01 00:00:15;;;;;;;6.10;5.50;;;10.30;99.90;;;;;;5070608;28;20913;-65
2021/06/01 00:02:41;;;;;;;6.43;5.73;;;10.50;99.90;;;;;;5070681;28;20442;-65
2021/06/01 00:05:10;;;;;;;7.60;6.10;;;10.50;99.90;;;;;;5070363;28;20949;-64
2021/06/01 00:07:37;;;;;;;6.33;4.77;;;10.50;99.90;;;;;;5070133;28;20526;-67
2021/06/01 00:10:04;;;;;;;7.23;5.57;;;10.40;99.90;;;;;;5069713;28;20483;-64
2021/06/01 00:12:30;;;;;;;11.57;5.90;;;10.40;99.90;;;;;;5070419;28;20458;-64
2021/06/01 00:14:56;;;;;;;9.13;6.23;;;10.40;99.90;;;;;;5070454;28;20451;-64
2021/06/01 00:17:23;;;;;;;6.80;5.77;;;10.40;99.90;;;;;;5070549;28;20443;-64
2021/06/01 00:19:49;;;;;;;7.40;5.57;;;10.30;99.90;;;;;;5070040;28;20509;-65
2021/06/01 00:22:17;;;;;;;6.10;5.50;;;10.30;99.90;;;;;;5070156;28;20573;-64
2021/06/01 00:24:43;;;;;;;6.47;5.70;;;10.20;99.90;;;;;;5070081;28;20457;-65
2021/06/01 00:27:10;;;;;;;8.30;5.40;;;10.10;99.90;;;;;;5070414;28;20443;-65
2021/06/01 00:29:36;;;;;;;8.13;6.03;;;10.00;99.90;;;;;;5069879;28;20439;-65
2021/06/01 00:32:03;;;;;;;6.77;5.93;;;9.90;99.90;;;;;;5070316;28;20467;-64
2021/06/01 00:34:29;;;;;;;7.10;5.53;;;9.80;99.90;;;;;;5070325;28;20451;-64
2021/06/01 00:36:55;;;;;;;7.70;6.90;;;9.80;99.90;;;;;;5070342;28;20819;-65
2021/06/01 00:39:23;;;;;;;6.90;6.20;;;9.70;99.90;;;;;;5069868;28;20447;-64
2021/06/01 00:41:49;;;;;;;6.47;5.87;;;9.70;99.90;;;;;;5070226;28;20474;-65
2021/06/01 01:38:53;;;;;;;7.00;6.00;;;8.60;99.90;;;;;;5069584;28;20444;-67
2021/06/01 01:41:21;;;;;;;7.20;6.50;;;8.60;99.90;;;;;;5068148;28;20546;-66
2021/06/01 01:43:51;;;;;;;7.50;6.50;;;8.60;99.90;;;;;;5069475;28;20542;-67
2021/06/01 01:46:27;;;;;;;7.73;6.67;;;8.70;99.90;;;;;;5069536;28;20493;-66
2021/06/01 01:48:58;;;;;;;8.00;6.77;;;8.50;99.90;;;;;;5069306;28;20447;-67
2021/06/01 01:51:26;;;;;;;8.03;6.80;;;8.40;99.90;;;;;;5069171;28;20483;-66
2021/06/01 01:53:54;;;;;;;7.27;6.60;;;8.30;99.90;;;;;;5069281;28;20461;-66
2021/06/01 01:56:25;;;;;;;7.27;6.57;;;8.30;99.90;;;;;;5069684;28;20447;-66
2021/06/01 01:58:53;;;;;;;7.63;6.63;;;8.30;99.90;;;;;;5072795;28;20442;-67
2021/06/01 02:01:21;;;;;;;7.23;6.50;;;8.20;99.90;;;;;;5072790;28;20463;-67
2021/06/01 02:03:48;;;;;;;8.07;6.70;;;8.30;99.90;;;;;;5072902;28;20957;-65
2021/06/01 02:06:14;;;;;;;8.20;6.87;;;8.20;99.90;;;;;;5072841;28;20952;-65
2021/06/01 02:08:41;;;;;;;7.60;5.80;;;8.20;99.90;;;;;;5072810;28;20949;-66
2021/06/01 02:11:08;;;;;;;9.63;7.37;;;8.30;99.90;;;;;;5072591;28;20487;-65
2021/06/01 02:13:44;;;;;;;7.13;6.40;;;8.40;99.90;;;;;;5073103;28;20832;-66
2021/06/01 02:16:10;;;;;;;7.20;6.17;;;8.40;99.90;;;;;;5073168;28;21028;-66
2021/06/01 02:18:37;;;;;;;7.77;6.10;;;8.40;99.90;;;;;;5072948;28;20852;-66
2021/06/01 02:21:18;;;;;;;7.23;6.43;;;8.40;99.90;;;;;;5072725;28;20526;-66
2021/06/01 02:23:48;;;;;;;9.00;7.53;;;8.30;99.90;;;;;;5072735;28;20446;-65
2021/06/01 02:26:22;;;;;;;8.40;6.67;;;8.20;99.90;;;;;;5072677;28;20517;-65
2021/06/01 02:28:54;;;;;;;12.93;6.93;;;8.20;99.90;;;;;;5072518;28;20450;-66
2021/06/01 02:31:27;;;;;;;8.60;7.80;;;8.00;99.90;;;;;;5072064;28;20487;-65
2021/06/01 02:33:56;;;;;;;7.87;6.97;;;8.00;99.90;;;;;;5072754;28;20529;-66
2021/06/01 02:36:25;;;;;;;7.10;6.40;;;7.90;99.90;;;;;;5072228;28;20454;-66
2021/06/01 02:38:52;;;;;;;7.37;6.30;;;7.80;99.90;;;;;;5072084;28;20447;-66
2021/06/01 02:41:19;;;;;;;9.53;6.20;;;7.70;99.90;;;;;;5071867;28;20467;-65
2021/06/01 02:43:45;;;;;;;6.73;6.10;;;7.60;99.90;;;;;;5072032;28;20806;-65
2021/06/01 02:46:15;;;;;;;8.97;6.90;;;7.60;99.90;;;;;;5072388;28;20459;-65
2021/06/01 02:48:42;;;;;;;7.67;6.87;;;7.50;99.90;;;;;;5072174;28;20457;-65
2021/06/01 02:51:16;;;;;;;9.10;7.00;;;7.40;99.90;;;;;;5071588;28;20581;-66
2021/06/01 02:53:44;;;;;;;7.57;6.77;;;7.40;99.90;;;;;;5072099;28;20892;-65
2021/06/01 02:56:12;;;;;;;9.13;7.77;;;7.40;99.90;;;;;;5071864;28;20994;-65
2021/06/01 02:58:40;;;;;;;9.30;8.20;;;7.40;99.90;;;;;;5071901;28;20445;-67
2021/06/01 03:01:06;;;;;;;9.50;7.70;;;7.40;99.90;;;;;;5071452;28;20833;-64
2021/06/01 03:03:34;;;;;;;9.00;7.40;;;7.40;99.90;;;;;;5071695;28;20538;-66
2021/06/01 03:06:00;;;;;;;8.10;7.10;;;7.40;99.90;;;;;;5071778;28;20662;-65
2021/06/01 03:08:28;;;;;;;10.53;7.20;;;7.40;99.90;;;;;;5071005;28;20451;-66
2021/06/01 03:10:56;;;;;;;10.63;7.10;;;7.30;99.90;;;;;;5070870;28;20514;-67
2021/06/01 03:13:23;;;;;;;9.27;8.07;;;7.40;99.90;;;;;;5071367;28;20447;-67
2021/06/01 03:15:49;;;;;;;9.90;8.37;;;7.40;99.90;;;;;;5071338;28;20439;-67
2021/06/01 03:18:15;;;;;;;18.23;8.77;;;7.30;99.90;;;;;;5071367;28;20467;-67
2021/06/01 03:20:44;;;;;;;12.30;7.43;;;7.30;99.90;;;;;;5070900;28;20502;-67
2021/06/01 03:23:10;;;;;;;12.53;7.50;;;7.20;99.90;;;;;;5071028;28;20549;-67
2021/06/01 03:25:37;;;;;;;14.10;7.33;;;7.20;99.90;;;;;;5071171;28;20443;-67
2021/06/01 03:28:03;;;;;;;13.53;8.13;;;7.20;99.90;;;;;;5071742;28;20451;-68
2021/06/01 03:30:30;;;;;;;9.90;7.80;;;7.20;99.90;;;;;;5071131;28;20482;-67
2021/06/01 03:32:56;;;;;;;10.97;7.07;;;7.20;99.90;;;;;;5071383;28;20447;-67
2021/06/01 03:35:24;;;;;;;9.57;7.80;;;7.10;99.90;;;;;;5071551;28;20455;-67
2021/06/01 03:37:52;;;;;;;12.20;8.03;;;7.10;99.90;;;;;;5070971;28;20941;-65
2021/06/01 03:40:19;;;;;;;11.40;8.60;;;7.20;99.90;;;;;;5070708;28;20467;-66
2021/06/01 03:42:46;;;;;;;9.37;8.00;;;7.10;99.90;;;;;;5070626;28;20447;-66
2021/06/01 03:45:13;;;;;;;9.10;8.20;;;7.20;99.90;;;;;;5070760;28;20458;-67
2021/06/01 03:47:40;;;;;;;8.57;7.20;;;7.20;99.90;;;;;;5070737;28;20523;-66
2021/06/01 03:50:08;;;;;;;8.43;7.43;;;7.20;99.90;;;;;;5070396;28;20566;-66
2021/06/01 03:52:35;;;;;;;9.07;8.10;;;7.20;99.90;;;;;;5070683;28;20522;-66
2021/06/01 03:55:03;;;;;;;10.43;8.67;;;7.10;99.90;;;;;;5070720;28;20442;-65
2021/06/01 03:57:30;;;;;;;9.67;8.23;;;7.10;99.90;;;;;;5070563;28;20458;-67
2021/06/01 03:59:56;;;;;;;10.43;7.57;;;7.20;99.90;;;;;;5070368;28;20458;-65
2021/06/01 04:02:23;;;;;;;8.67;7.50;;;7.20;99.90;;;;;;5070367;28;20528;-65
2021/06/01 04:04:50;;;;;;;9.20;8.13;;;7.20;99.90;;;;;;5070530;28;20447;-65
2021/06/01 04:07:16;;;;;;;9.33;7.17;;;7.20;99.90;;;;;;5070731;28;20455;-65
2021/06/01 04:09:43;;;;;;;9.10;6.40;;;7.30;99.90;;;;;;5070587;28;20438;-66
2021/06/01 04:12:12;;;;;;;11.50;7.00;;;7.30;99.90;;;;;;5070667;28;20485;-66
2021/06/01 04:14:39;;;;;;;8.70;7.53;;;7.40;99.90;;;;;;5070809;28;20439;-65
2021/06/01 04:17:06;;;;;;;10.07;7.60;;;7.50;99.90;;;;;;5070807;28;20447;-66
2021/06/01 04:19:33;;;;;;;9.03;7.73;;;7.50;99.90;;;;;;5069423;28;20537;-66
2021/06/01 04:21:59;;;;;;;8.07;7.27;;;7.50;99.90;;;;;;5070498;28;20467;-66
2021/06/01 04:24:27;;;;;;;9.50;8.07;;;7.50;99.90;;;;;;5070746;28;20435;-66
2021/06/01 04:26:54;;;;;;;8.57;7.17;;;7.60;99.90;;;;;;5070622;28;20501;-66
2021/06/01 04:29:22;;;;;;;10.70;7.77;;;7.60;99.90;;;;;;5069972;28;20439;-66
2021/06/01 04:31:49;;;;;;;10.27;7.10;;;7.70;99.90;;;;;;5070449;28;20490;-67
2021/06/01 04:34:15;;;;;;;9.47;8.30;;;7.80;99.90;;;;;;5070230;28;20529;-67
2021/06/01 04:36:41;;;;;;;8.80;7.90;;;8.00;99.90;;;;;;5070443;28;20447;-67
2021/06/01 04:39:08;;;;;;;14.80;8.03;;;8.00;99.90;;;;;;5070106;28;20481;-66
2021/06/01 04:41:34;;;;;;;11.37;8.27;;;8.10;99.90;;;;;;5070402;28;20481;-66
2021/06/01 04:44:01;;;;;;;9.87;7.57;;;8.20;99.90;;;;;;5070328;28;20485;-67
2021/06/01 04:46:28;;;;;;;11.50;7.77;;;8.30;99.90;;;;;;5069946;28;20534;-67
2021/06/01 04:48:55;;;;;;;10.43;7.40;;;8.40;99.90;;;;;;5069972;28;20449;-66
2021/06/01 04:51:23;;;;;;;9.73;7.00;;;8.50;99.90;;;;;;5069509;28;20570;-66
2021/06/01 04:53:50;;;;;;;8.70;7.80;;;8.50;99.90;;;;;;5070100;28;20451;-65
2021/06/01 04:56:16;;;;;;;8.73;7.83;;;8.60;99.90;;;;;;5069965;28;20443;-66
2021/06/01 04:58:43;;;;;;;16.30;8.30;;;8.70;99.90;;;;;;5069488;28;20439;-66
2021/06/01 05:01:10;;;;;;;9.67;6.90;;;8.80;99.90;;;;;;5069010;28;20465;-66
2021/06/01 05:03:38;;;;;;;10.97;7.67;;;8.80;99.90;;;;;;5069375;28;20941;-67
2021/06/01 05:06:05;;;;;;;10.10;7.93;;;8.80;99.90;;;;;;5069245;28;20457;-65
2021/06/01 05:08:31;;;;;;;8.50;7.47;;;8.90;99.90;;;;;;5069236;28;20522;-65
2021/06/01 05:10:58;;;;;;;8.40;7.53;;;9.00;99.90;;;;;;5068986;28;20735;-67
2021/06/01 05:13:24;;;;;;;8.50;7.60;;;9.10;99.90;;;;;;5069230;28;20533;-66
2021/06/01 05:15:52;;;;;;;10.43;7.90;;;9.20;99.90;;;;;;5069086;28;20455;-66
2021/06/01 05:18:18;;;;;;;8.30;6.73;;;9.30;99.90;;;;;;5069440;28;20873;-66
2021/06/01 05:20:46;;;;;;;9.10;8.20;;;9.40;99.90;;;;;;5068940;28;20490;-67
2021/06/01 05:23:13;;;;;;;11.90;7.97;;;9.50;99.90;;;;;;5069064;28;20827;-66
2021/06/01 05:25:39;;;;;;;9.70;8.00;;;9.60;99.90;;;;;;5069266;28;20447;-66
2021/06/01 05:28:06;;;;;;;8.97;7.87;;;9.60;99.90;;;;;;5069216;28;20443;-66
2021/06/01 05:30:36;;;;;;;8.03;7.23;;;9.80;99.90;;;;;;5068865;28;20486;-66
2021/06/01 05:35:52;;;;;;;8.83;7.67;;;10.10;99.90;;;;;;5073202;28;20415;-65
2021/06/01 05:38:20;;;;;;;11.97;9.77;;;10.30;99.90;;;;;;5072796;28;20866;-65
2021/06/01 05:40:47;;;;;;;13.30;8.63;;;10.40;99.90;;;;;;5072180;28;20987;-66
2021/06/01 05:43:13;;;;;;;9.73;8.73;;;10.40;99.90;;;;;;5072906;28;20501;-65
2021/06/01 05:45:40;;;;;;;13.80;9.00;;;10.40;99.90;;;;;;5072819;28;20439;-66
2021/06/01 05:48:07;;;;;;;10.50;8.67;;;10.60;99.90;;;;;;5072748;28;20458;-66
2021/06/01 05:50:34;;;;;;;9.90;8.90;;;10.60;99.90;;;;;;5072192;28;20482;-65
2021/06/01 05:53:01;;;;;;;10.57;8.40;;;10.70;99.90;;;;;;5072567;28;20443;-66
2021/06/01 05:55:28;;;;;;;9.33;7.90;;;10.80;99.90;;;;;;5072375;28;20459;-65
2021/06/01 05:57:55;;;;;;;12.00;9.47;;;11.00;99.90;;;;;;5072685;28;20447;-66
2021/06/01 06:00:23;;;;;;;8.87;7.97;;;11.10;99.90;;;;;;5072209;28;20841;-66
2021/06/01 06:02:50;;;;;;;9.90;8.70;;;11.30;99.90;;;;;;5072602;28;20858;-66
2021/06/01 06:05:16;;;;;;;9.13;8.23;;;11.50;99.90;;;;;;5072528;28;20937;-66
2021/06/01 06:07:43;;;;;;;9.70;8.10;;;11.60;99.90;;;;;;5072708;28;20554;-66
2021/06/01 06:10:12;;;;;;;12.13;7.30;;;11.70;99.90;;;;;;5072105;28;20465;-66
2021/06/01 06:12:39;;;;;;;7.97;7.17;;;11.90;99.90;;;;;;5072592;28;20453;-66
2021/06/01 06:15:08;;;;;;;9.83;6.37;;;12.00;99.90;;;;;;5072425;28;20449;-67
2021/06/01 06:17:43;;;;;;;7.80;7.00;;;12.10;99.90;;;;;;5072424;28;20447;-65
2021/06/01 06:20:12;;;;;;;7.90;6.87;;;12.30;99.90;;;;;;5071889;28;20445;-66
2021/06/01 06:22:38;;;;;;;7.93;6.50;;;12.40;99.90;;;;;;5071822;28;21032;-66
2021/06/01 06:25:05;;;;;;;7.30;5.90;;;12.60;99.90;;;;;;5072022;28;20861;-66
2021/06/01 06:27:33;;;;;;;10.93;6.53;;;12.70;99.90;;;;;;5071922;28;20534;-66
2021/06/01 06:29:59;;;;;;;8.07;5.70;;;12.90;99.90;;;;;;5071374;28;20453;-66
2021/06/01 06:32:26;;;;;;;10.50;5.43;;;13.20;99.90;;;;;;5071797;28;20478;-66
2021/06/01 06:34:54;;;;;;;5.43;4.93;;;13.40;99.90;;;;;;5071781;28;20455;-67
2021/06/01 06:37:20;;;;;;;6.40;5.17;;;13.50;99.90;;;;;;5071939;28;20446;-66
2021/06/01 06:39:47;;;;;;;6.23;5.60;;;13.70;99.90;;;;;;5071610;28;20447;-66
2021/06/01 06:42:13;;;;;;;5.70;5.13;;;13.80;99.90;;;;;;5071143;28;20459;-66
2021/06/01 06:44:43;;;;;;;5.50;4.70;;;14.00;99.90;;;;;;5071605;28;21134;-66
2021/06/01 06:47:21;;;;;;;6.03;5.10;;;14.10;99.90;;;;;;5071628;28;20455;-66
2021/06/01 06:49:47;;;;;;;5.10;4.60;;;14.20;99.90;;;;;;5071611;28;20474;-66
2021/06/01 06:52:14;;;;;;;5.53;4.40;;;14.40;99.90;;;;;;5071368;28;20514;-66
2021/06/01 06:54:41;;;;;;;5.87;4.60;;;14.60;99.90;;;;;;5071534;28;21013;-65
2021/06/01 06:57:08;;;;;;;4.00;3.43;;;14.70;99.90;;;;;;5071446;28;20978;-65
2021/06/01 06:59:35;;;;;;;4.20;3.63;;;14.80;99.90;;;;;;5070972;28;20447;-66
2021/06/01 07:02:03;;;;;;;5.77;4.20;;;15.00;99.90;;;;;;5071004;28;20524;-67
2021/06/01 07:04:30;;;;;;;8.97;5.43;;;15.20;99.90;;;;;;5071454;28;20475;-66
2021/06/01 07:06:58;;;;;;;4.60;4.07;;;15.40;99.90;;;;;;5071171;28;20533;-65
2021/06/01 07:09:25;;;;;;;5.23;3.80;;;15.70;99.90;;;;;;5070931;28;20494;-67
2021/06/01 07:11:51;;;;;;;4.63;3.43;;;15.80;99.90;;;;;;5071158;28;20521;-66
2021/06/01 07:14:32;;;;;;;3.40;2.93;;;16.10;99.90;;;;;;5071066;28;20538;-66
2021/06/01 07:16:59;;;;;;;4.10;3.50;;;16.20;99.90;;;;;;5071126;28;20466;-66
2021/06/01 07:19:26;;;;;;;4.93;3.40;;;16.40;99.90;;;;;;5070902;28;20469;-66
2021/06/01 07:21:53;;;;;;;3.60;3.07;;;16.50;99.90;;;;;;5071007;28;20554;-66
2021/06/01 07:24:19;;;;;;;3.40;3.10;;;16.60;99.90;;;;;;5071252;28;20458;-66
2021/06/01 07:26:45;;;;;;;4.13;3.10;;;16.70;99.90;;;;;;5070841;28;20439;-66
2021/06/01 07:29:12;;;;;;;5.53;3.00;;;16.90;99.90;;;;;;5070315;28;20447;-66
2021/06/01 07:31:38;;;;;;;4.67;3.30;;;17.00;99.90;;;;;;5070485;28;20565;-67
2021/06/01 07:34:05;;;;;;;3.63;3.27;;;17.10;99.90;;;;;;5070570;28;20530;-67
2021/06/01 07:36:32;;;;;;;5.70;3.17;;;17.30;99.90;;;;;;5071159;28;20455;-67
2021/06/01 07:38:59;;;;;;;6.30;3.43;;;17.40;99.90;;;;;;5070702;28;20447;-67
2021/06/01 07:41:25;;;;;;;6.53;3.20;;;17.50;99.70;;;;;;5070683;28;20466;-67
2021/06/01 07:43:54;;;;;;;4.07;3.17;;;17.60;99.20;;;;;;5071387;28;20447;-68
2021/06/01 07:46:20;;;;;;;4.10;3.50;;;17.70;99.80;;;;;;5070850;28;20455;-67
2021/06/01 07:48:46;;;;;;;3.87;3.47;;;17.90;98.70;;;;;;5071030;28;20478;-67
2021/06/01 07:51:13;;;;;;;3.43;3.00;;;18.00;98.30;;;;;;5070414;28;20487;-67
2021/06/01 07:53:41;;;;;;;4.90;3.23;;;18.10;98.20;;;;;;5070678;28;20530;-67
2021/06/01 07:56:09;;;;;;;3.83;3.40;;;18.20;98.10;;;;;;5071127;28;20439;-66
2021/06/01 07:58:36;;;;;;;3.90;2.97;;;18.30;98.30;;;;;;5071701;28;20681;-67
2021/06/01 08:01:02;;;;;;;5.28;3.60;;;18.50;96.70;;;;;;5071508;28;20478;-67
2021/06/01 08:03:29;;;;;;;3.90;2.90;;;18.60;95.30;;;;;;5071746;28;20666;-67
2021/06/01 08:05:55;;;;;;;3.80;3.40;;;18.70;95.30;;;;;;5071353;28;20447;-67
2021/06/01 08:08:22;;;;;;;3.87;2.87;;;18.80;95.50;;;;;;5070744;28;20469;-67
2021/06/01 08:10:50;;;;;;;5.93;3.00;;;18.90;95.60;;;;;;5069719;28;20491;-67
2021/06/01 08:13:16;;;;;;;3.40;3.10;;;19.00;94.20;;;;;;5070460;28;20504;-67
2021/06/01 08:15:49;;;;;;;4.93;3.33;;;19.10;93.30;;;;;;5070260;28;20445;-67
2021/06/01 08:18:17;;;;;;;3.70;2.90;;;19.10;93.10;;;;;;5070555;28;20451;-67
2021/06/01 08:20:54;;;;;;;3.70;2.80;;;19.20;93.20;;;;;;5070048;28;20463;-67
2021/06/01 08:23:21;;;;;;;7.53;2.77;;;19.30;93.20;;;;;;5069905;28;20860;-67
2021/06/01 08:25:49;;;;;;;3.50;3.03;;;19.40;92.10;;;;;;5070036;28;20580;-67
2021/06/01 08:28:16;;;;;;;4.00;3.07;;;19.40;92.80;;;;;;5069962;28;20500;-67
2021/06/01 08:30:42;;;;;;;3.90;3.50;;;19.50;90.80;;;;;;5069385;28;20558;-68
2021/06/01 08:33:09;;;;;;;4.37;2.93;;;19.60;92.70;;;;;;5069725;28;20454;-67
2021/06/01 08:35:35;;;;;;;3.60;2.60;;;19.80;92.30;;;;;;5069726;28;20508;-67
2021/06/01 08:38:01;;;;;;;3.30;3.00;;;19.90;90.00;;;;;;5069637;28;20531;-67
2021/06/01 08:40:28;;;;;;;4.97;2.97;;;20.00;90.60;;;;;;5069451;28;20964;-67
2021/06/01 08:42:56;;;;;;;4.80;3.03;;;19.90;89.90;;;;;;5069812;28;20451;-67
2021/06/01 08:45:22;;;;;;;4.20;2.77;;;20.00;88.80;;;;;;5069635;28;20546;-67
2021/06/01 08:47:49;;;;;;;4.37;3.17;;;20.10;86.20;;;;;;5069645;28;20454;-67
2021/06/01 08:50:17;;;;;;;5.27;2.70;;;20.30;87.50;;;;;;5069163;28;20837;-67
2021/06/01 08:52:44;;;;;;;3.60;3.10;;;20.40;87.70;;;;;;5069450;28;21026;-67
2021/06/01 08:55:12;;;;;;;3.73;2.80;;;20.50;84.30;;;;;;5069400;28;20435;-67
2021/06/01 08:57:40;;;;;;;4.23;3.27;;;20.60;83.80;;;;;;5069352;28;21012;-67
2021/06/01 09:00:11;;;;;;;3.80;2.90;;;20.70;83.80;;;;;;5069116;28;20447;-67
2021/06/01 09:02:38;;;;;;;3.57;3.00;;;20.70;81.60;;;;;;5069347;28;20449;-68
2021/06/01 09:05:07;;;;;;;4.20;3.00;;;20.80;82.40;;;;;;5069880;28;20859;-67
2021/06/01 09:07:47;;;;;;;3.33;2.50;;;20.80;83.60;;;;;;5073233;28;20829;-67
2021/06/01 09:10:29;;;;;;;3.43;2.97;;;20.90;83.10;;;;;;5073193;28;20489;-68
2021/06/01 09:13:23;;;;;;;3.20;2.73;;;21.10;82.80;;;;;;5073469;28;20933;-67
2021/06/01 09:21:38;;;;;;;4.20;2.93;;;21.50;79.40;;;;;;5072955;28;21032;-67
2021/06/01 09:24:06;;;;;;;2.97;2.67;;;21.70;80.20;;;;;;5073025;28;20612;-67
2021/06/01 09:26:53;;;;;;;3.47;2.50;;;21.70;80.80;;;;;;5073184;28;20446;-67
2021/06/01 09:29:19;;;;;;;3.70;2.40;;;21.70;78.30;;;;;;5072748;28;20542;-67
2021/06/01 09:32:04;;;;;;;3.80;3.20;;;21.80;74.90;;;;;;5072744;28;20551;-67
2021/06/01 09:34:35;;;;;;;3.83;3.30;;;21.90;76.90;;;;;;5072894;28;20936;-67
2021/06/01 09:37:16;;;;;;;3.50;2.70;;;22.00;75.10;;;;;;5072922;28;20447;-67
2021/06/01 09:39:42;;;;;;;3.80;2.83;;;22.20;75.00;;;;;;5072815;28;20447;-68
2021/06/01 09:42:24;;;;;;;4.10;3.00;;;22.20;73.60;;;;;;5072575;28;20467;-67
2021/06/01 09:45:03;;;;;;;3.57;3.20;;;22.30;71.00;;;;;;5072946;28;20447;-67
2021/06/01 09:47:47;;;;;;;4.40;3.20;;;22.50;77.30;;;;;;5073213;28;20442;-67
2021/06/01 09:50:21;;;;;;;3.97;3.00;;;22.60;74.40;;;;;;5072620;28;20486;-68
2021/06/01 09:52:49;;;;;;;3.20;2.90;;;22.80;76.60;;;;;;5073373;28;20543;-68
2021/06/01 09:55:24;;;;;;;3.53;3.20;;;23.30;73.90;;;;;;5073107;28;20541;-68
2021/06/01 09:57:51;;;;;;;3.03;2.73;;;23.90;69.80;;;;;;5073003;28;20956;-66
2021/06/01 10:00:20;;;;;;;3.80;3.40;;;24.60;68.10;;;;;;5072639;28;20958;-67
2021/06/01 10:02:50;;;;;;;3.30;2.93;;;25.20;66.30;;;;;;5073012;28;20435;-67
2021/06/01 10:05:20;;;;;;;7.50;3.10;;;25.80;67.10;;;;;;5072564;28;20443;-66
2021/06/01 10:07:48;;;;;;;3.43;2.80;;;26.40;62.80;;;;;;5072678;28;20457;-67
2021/06/01 10:10:20;;;;;;;3.73;3.00;;;26.80;60.60;;;;;;5072152;28;20459;-66
2021/06/01 10:12:48;;;;;;;3.30;2.90;;;27.00;60.00;;;;;;5072345;28;20485;-66
2021/06/01 10:15:16;;;;;;;3.77;3.17;;;27.30;57.90;;;;;;5072308;28;20439;-67
2021/06/01 10:17:43;;;;;;;6.33;3.20;;;27.10;55.10;;;;;;5070936;28;20458;-66
2021/06/01 10:20:12;;;;;;;4.57;2.83;;;27.30;56.50;;;;;;5071673;28;20530;-67
2021/06/01 10:22:39;;;;;;;4.40;2.63;;;27.20;55.80;;;;;;5071959;28;20482;-67
2021/06/01 10:25:07;;;;;;;3.10;2.70;;;27.50;55.30;;;;;;5072149;28;20533;-66
2021/06/01 10:27:34;;;;;;;5.40;2.80;;;27.50;54.90;;;;;;5072065;28;20447;-67
2021/06/01 10:30:00;;;;;;;4.07;3.30;;;27.90;55.30;;;;;;5071474;28;20492;-66
2021/06/01 10:32:28;;;;;;;3.30;3.00;;;27.80;54.00;;;;;;5073039;28;20569;-67
2021/06/01 10:34:57;;;;;;;3.17;2.63;;;28.20;54.40;;;;;;5073119;28;20439;-66
2021/06/01 10:49:09;;;;;;;3.03;2.60;;;27.90;52.30;;;;;;5071068;28;20994;-66
2021/06/01 10:52:04;;;;;;;4.07;2.63;;;27.80;51.20;;;;;;5072043;28;20490;-67
2021/06/01 10:54:52;;;;;;;3.00;2.70;;;27.80;51.60;;;;;;5071616;28;21043;-67
2021/06/01 10:57:20;;;;;;;3.27;2.50;;;28.10;51.00;;;;;;5071290;28;20970;-67
2021/06/01 11:03:06;;;;;;;3.20;2.50;;;28.60;50.80;;;;;;5071315;28;20496;-67
2021/06/01 11:05:41;;;;;;;4.23;2.77;;;28.60;48.90;;;;;;5071107;28;20462;-67
2021/06/01 11:08:12;;;;;;;2.60;2.30;;;28.50;51.20;;;;;;5071114;28;20926;-67
2021/06/01 11:10:41;;;;;;;5.13;2.50;;;28.60;49.50;;;;;;5070786;28;20466;-66
2021/06/01 11:13:08;;;;;;;2.73;2.20;;;28.80;48.60;;;;;;5070950;28;20501;-67
2021/06/01 11:15:40;;;;;;;3.50;2.27;;;29.00;49.10;;;;;;5071060;28;20451;-67
2021/06/01 11:18:15;;;;;;;4.00;2.50;;;29.40;47.70;;;;;;5071153;28;20435;-67
2021/06/01 11:21:07;;;;;;;3.83;2.53;;;29.70;49.50;;;;;;5070573;28;21003;-67
2021/06/01 11:24:16;;;;;;;3.50;2.60;;;29.90;45.70;;;;;;5070735;28;20454;-67
2021/06/01 11:35:40;;;;;;;2.97;2.57;;;30.10;47.40;;;;;;5053518;28;20438;-67
2021/06/01 11:38:12;;;;;;;3.20;2.30;;;30.50;46.30;;;;;;5070466;28;20447;-67
2021/06/01 11:40:55;;;;;;;3.30;2.60;;;30.80;44.20;;;;;;5070244;28;20497;-66
2021/06/01 11:43:21;;;;;;;4.57;2.80;;;31.00;47.30;;;;;;5070879;28;20951;-67
2021/06/01 11:45:53;;;;;;;3.60;2.37;;;30.90;42.60;;;;;;5070688;28;20438;-67
2021/06/01 11:51:13;;;;;;;3.20;2.63;;;29.90;45.00;;;;;;5036061;28;20815;-67
2021/06/01 11:53:50;;;;;;;3.30;3.00;;;30.20;46.80;;;;;;5070752;28;20443;-66
2021/06/01 11:56:38;;;;;;;4.03;2.77;;;30.70;44.50;;;;;;5070403;28;20500;-67
2021/06/01 12:02:05;;;;;;;3.03;2.40;;;31.00;46.70;;;;;;5070353;28;20439;-67
2021/06/01 12:18:41;;;;;;;2.90;2.60;;;31.60;45.10;;;;;;5069952;28;20438;-67
2021/06/01 12:21:09;;;;;;;3.83;2.80;;;31.60;44.60;;;;;;5069496;28;20510;-67
2021/06/01 12:23:38;;;;;;;5.10;2.90;;;31.90;44.80;;;;;;5069828;28;20465;-68
2021/06/01 12:26:13;;;;;;;2.90;2.43;;;32.20;44.80;;;;;;5069641;28;20445;-67
2021/06/01 12:32:01;;;;;;;3.33;2.40;;;32.90;41.90;;;;;;5069722;28;20482;-67
2021/06/01 12:34:39;;;;;;;3.40;2.93;;;32.80;44.60;;;;;;5070080;28;20511;-67
2021/06/01 12:45:35;;;;;;;3.90;2.57;;;33.30;41.90;;;;;;5038150;28;20443;-66
2021/06/01 13:21:45;;;;;;;3.00;2.70;;;34.60;37.70;;;;;;5069138;28;20500;-66
2021/06/01 13:24:33;;;;;;;3.43;2.60;;;34.30;39.30;;;;;;5069070;28;20450;-67
2021/06/01 13:30:18;;;;;;;3.33;2.60;;;34.70;39.90;;;;;;5068955;28;20837;-66
2021/06/01 13:38:34;;;;;;;2.90;2.50;;;34.70;38.20;;;;;;5069161;28;20453;-65
2021/06/01 13:46:47;;;;;;;2.93;2.33;;;35.40;36.40;;;;;;5061100;28;20940;-66
2021/06/01 13:49:18;;;;;;;6.30;2.40;;;34.70;36.00;;;;;;5068848;28;20443;-66
2021/06/01 13:57:19;;;;;;;3.20;2.13;;;34.40;39.20;;;;;;5072874;28;20445;-66
2021/06/01 13:59:52;;;;;;;2.70;2.40;;;35.20;37.40;;;;;;5072217;28;20538;-66
2021/06/01 14:19:34;;;;;;;5.77;2.10;;;35.90;34.50;;;;;;5071936;28;20418;-67
2021/06/01 14:30:16;;;;;;;6.27;2.50;;;36.70;32.70;;;;;;5071693;28;20848;-66
2021/06/01 14:38:49;;;;;;;3.53;2.43;;;36.10;32.40;;;;;;4990320;28;20469;-67
2021/06/01 15:28:43;;;;;;;3.47;2.37;;;35.90;34.10;;;;;;5070935;28;20423;-66
2021/06/01 15:47:51;;;;;;;3.83;2.70;;;32.50;36.10;;;;;;5070577;28;20450;-66
2021/06/01 15:50:30;;;;;;;3.03;2.40;;;31.90;37.50;;;;;;5070391;28;20475;-67
2021/06/01 15:53:34;;;;;;;3.30;2.47;;;31.20;37.30;;;;;;5070447;28;20569;-67
2021/06/01 16:13:09;;;;;;;3.73;2.40;;;29.10;43.00;;;;;;5069884;28;20524;-66
2021/06/01 16:21:30;;;;;;;4.23;2.80;;;28.90;42.40;;;;;;5069462;28;20986;-66
2021/06/01 16:29:49;;;;;;;3.63;2.97;;;28.60;43.20;;;;;;5069519;28;20518;-67
2021/06/01 16:43:39;;;;;;;3.20;2.20;;;28.30;44.00;;;;;;5069679;28;20414;-67
2021/06/01 17:05:31;;;;;;;4.37;2.37;;;28.10;43.90;;;;;;5069419;28;20429;-67
2021/06/01 17:08:20;;;;;;;3.17;2.40;;;27.70;45.30;;;;;;5069440;28;20462;-67
2021/06/01 17:11:07;;;;;;;3.93;2.40;;;27.30;43.60;;;;;;5068874;28;21146;-66
2021/06/01 17:13:37;;;;;;;4.50;2.63;;;26.80;44.20;;;;;;5069269;28;20587;-67
2021/06/01 17:16:05;;;;;;;3.20;2.23;;;26.50;46.20;;;;;;5069314;28;20979;-67
2021/06/01 17:18:51;;;;;;;4.30;2.93;;;26.00;45.90;;;;;;5069232;28;20457;-66
2021/06/01 17:21:51;;;;;;;3.90;2.80;;;25.70;47.10;;;;;;5068936;28;20490;-66
2021/06/01 17:35:23;;;;;;;4.23;3.00;;;23.80;48.50;;;;;;5073425;28;20423;-67
2021/06/01 17:37:51;;;;;;;4.50;2.70;;;23.50;49.20;;;;;;5055278;28;20508;-67
2021/06/01 17:40:20;;;;;;;3.40;2.80;;;23.20;49.10;;;;;;5072626;28;21008;-67
2021/06/01 17:42:51;;;;;;;4.70;2.97;;;23.00;50.30;;;;;;5073172;28;20504;-67
2021/06/01 17:45:22;;;;;;;5.13;3.20;;;22.80;51.40;;;;;;5071337;28;20466;-66
2021/06/01 17:47:53;;;;;;;4.77;2.70;;;22.60;51.40;;;;;;5071856;28;20973;-66
2021/06/01 17:50:22;;;;;;;4.03;2.33;;;22.40;50.90;;;;;;5072269;28;20467;-66
2021/06/01 17:52:55;;;;;;;3.47;2.83;;;22.30;50.70;;;;;;5071534;28;21013;-66
2021/06/01 17:55:23;;;;;;;4.10;3.10;;;22.10;52.20;;;;;;5072792;28;20534;-66
2021/06/01 17:57:52;;;;;;;3.93;2.50;;;22.00;52.80;;;;;;5072494;28;20596;-66
2021/06/01 18:00:21;;;;;;;3.67;3.13;;;21.80;52.80;;;;;;5072237;28;20481;-66
2021/06/01 18:02:48;;;;;;;4.00;3.60;;;21.60;53.30;;;;;;5072341;28;20439;-66
2021/06/01 18:05:16;;;;;;;6.83;3.23;;;21.50;54.70;;;;;;5072217;28;21062;-66
2021/06/01 18:07:51;;;;;;;3.37;2.97;;;21.30;55.00;;;;;;5072434;28;20455;-66
2021/06/01 18:11:02;;;;;;;4.13;3.30;;;21.20;54.00;;;;;;5071661;28;20478;-65
2021/06/01 18:42:00;;;;;;;5.03;3.00;;;20.10;57.50;;;;;;5071593;28;20539;-66
2021/06/01 19:43:15;;;;;;;5.13;3.70;;;17.00;76.70;;;;;;5070888;28;20461;-66
2021/06/01 19:51:11;;;;;;;4.80;3.57;;;16.60;78.10;;;;;;5070169;28;20500;-66
2021/06/01 19:53:40;;;;;;;4.40;3.40;;;16.50;78.30;;;;;;5070630;28;20478;-66
2021/06/01 19:56:08;;;;;;;6.03;4.17;;;16.40;80.40;;;;;;5071047;28;20522;-67
2021/06/01 19:58:35;;;;;;;6.50;4.80;;;16.30;80.10;;;;;;5070796;28;20447;-66
2021/06/01 20:01:05;;;;;;;5.20;4.53;;;16.30;81.30;;;;;;5070562;28;20470;-67
2021/06/01 20:03:32;;;;;;;3.73;3.20;;;16.20;81.60;;;;;;5070537;28;20447;-66
2021/06/01 20:05:58;;;;;;;4.00;3.33;;;16.10;80.40;;;;;;5070491;28;20547;-65
2021/06/01 20:08:26;;;;;;;4.83;3.60;;;16.10;81.30;;;;;;5070339;28;20504;-66
2021/06/01 20:10:54;;;;;;;4.00;3.60;;;16.00;81.00;;;;;;5070176;28;20481;-66